createdAt,value
2022-10-03T00:02:39.368Z,20.20
2022-10-03T00:08:08.123Z,20.10
2022-10-03T00:13:21.744Z,20.10
2022-10-03T00:18:36.142Z,20.10
2022-10-03T00:23:48.504Z,20.00
2022-10-03T00:29:01.387Z,20.00
2022-10-03T00:34:19.644Z,20.00
2022-10-03T00:39:40.900Z,20.00
2022-10-03T00:45:03.567Z,20.00
2022-10-03T00:50:39.573Z,20.00
2022-10-03T00:55:55.048Z,20.00
2022-10-03T01:01:06.235Z,20.00
2022-10-03T01:06:27.092Z,20.00
2022-10-03T01:11:42.133Z,19.90
2022-10-03T01:16:55.083Z,19.90
2022-10-03T01:22:16.927Z,19.90
2022-10-03T01:27:29.440Z,19.90
2022-10-03T01:32:41.622Z,19.90
2022-10-03T01:37:53.640Z,19.90
2022-10-03T01:43:15.550Z,19.90
2022-10-03T01:48:25.793Z,19.90
2022-10-03T01:53:39.898Z,20.00
2022-10-03T01:58:56.871Z,20.00
2022-10-03T02:04:08.197Z,20.00
2022-10-03T02:09:19.463Z,20.00
2022-10-03T02:14:30.617Z,20.00
2022-10-03T02:19:43.422Z,19.90
2022-10-03T02:24:53.919Z,19.90
2022-10-03T02:30:09.502Z,19.90
2022-10-03T02:35:46.486Z,19.90
2022-10-03T02:41:08.807Z,19.90
2022-10-03T02:46:46.452Z,19.90
2022-10-03T02:52:32.923Z,19.90
2022-10-03T02:58:22.594Z,19.90
2022-10-03T03:04:01.408Z,19.90
2022-10-03T03:09:50.904Z,19.80
2022-10-03T03:15:30.666Z,19.80
2022-10-03T03:20:56.363Z,19.80
2022-10-03T03:26:28.174Z,19.80
2022-10-03T03:31:37.484Z,19.80
2022-10-03T03:36:51.571Z,19.80
2022-10-03T03:42:13.109Z,19.70
2022-10-03T03:47:36.580Z,19.70
2022-10-03T03:52:57.324Z,19.70
2022-10-03T03:58:33.395Z,19.70
2022-10-03T04:03:50.059Z,19.60
2022-10-03T04:09:19.559Z,19.70
2022-10-03T04:14:56.618Z,19.70
2022-10-03T04:20:13.503Z,19.70
2022-10-03T04:25:26.872Z,19.70
2022-10-03T04:30:41.190Z,19.70
2022-10-03T04:36:12.540Z,19.70
2022-10-03T04:41:28.721Z,19.70
2022-10-03T04:46:40.733Z,19.60
2022-10-03T04:51:55.843Z,19.60
2022-10-03T04:57:05.957Z,19.60
2022-10-03T05:02:22.664Z,19.60
2022-10-03T05:07:33.989Z,19.60
2022-10-03T05:12:48.702Z,19.50
2022-10-03T05:18:06.083Z,19.50
2022-10-03T05:23:24.825Z,19.50
2022-10-03T05:28:40.523Z,19.50
2022-10-03T05:33:53.234Z,19.50
2022-10-03T05:39:29.962Z,19.60
2022-10-03T05:44:43.700Z,19.70
2022-10-03T05:50:22.559Z,19.70
2022-10-03T05:55:38.526Z,19.70
2022-10-03T06:01:01.951Z,19.80
2022-10-03T06:06:14.871Z,19.80
2022-10-03T06:11:38.690Z,19.80
2022-10-03T06:16:54.075Z,19.90
2022-10-03T06:22:33.923Z,19.90
2022-10-03T06:28:28.637Z,19.80
2022-10-03T06:33:59.896Z,19.90
2022-10-03T06:39:39.833Z,20.00
2022-10-03T06:45:15.651Z,20.00
2022-10-03T06:50:51.483Z,20.00
2022-10-03T06:56:11.439Z,20.00
2022-10-03T07:01:48.548Z,20.00
2022-10-03T07:07:14.349Z,20.00
2022-10-03T07:12:58.997Z,20.00
2022-10-03T07:18:45.731Z,20.00
2022-10-03T07:24:13.035Z,20.00
2022-10-03T07:29:51.911Z,20.00
2022-10-03T07:35:52.584Z,20.10
2022-10-03T07:41:21.441Z,20.20
2022-10-03T07:47:04.322Z,20.30
2022-10-03T07:52:42.347Z,20.40
2022-10-03T07:58:14.152Z,20.40
2022-10-03T08:04:02.123Z,20.40
2022-10-03T08:09:45.548Z,20.50
2022-10-03T08:15:04.705Z,20.60
2022-10-03T08:20:40.099Z,20.70
2022-10-03T08:26:00.765Z,20.80
2022-10-03T08:31:32.177Z,20.80
2022-10-03T08:37:02.405Z,20.80
2022-10-03T08:42:56.815Z,20.80
2022-10-03T08:48:51.332Z,20.90
2022-10-03T08:54:19.553Z,21.00
2022-10-03T09:00:00.210Z,21.00
2022-10-03T09:05:34.929Z,21.10
2022-10-03T09:11:05.549Z,21.20
2022-10-03T09:16:48.500Z,21.30
2022-10-03T09:22:34.781Z,21.50
2022-10-03T09:28:16.680Z,21.60
2022-10-03T09:33:50.779Z,21.70
2022-10-03T09:39:11.353Z,21.80
2022-10-03T09:44:47.859Z,21.90
2022-10-03T09:50:22.831Z,22.10
2022-10-03T09:56:01.990Z,22.30
2022-10-03T10:01:28.225Z,22.50
2022-10-03T10:07:04.109Z,22.80
2022-10-03T10:12:40.561Z,23.10
2022-10-03T10:18:12.470Z,23.40
2022-10-03T10:23:36.419Z,23.60
2022-10-03T10:29:17.839Z,23.90
2022-10-03T10:34:49.695Z,24.10
2022-10-03T10:40:41.454Z,24.20
2022-10-03T10:45:59.021Z,24.40
2022-10-03T10:51:44.771Z,24.40
2022-10-03T10:57:22.659Z,24.40
2022-10-03T11:02:58.752Z,24.30
2022-10-03T11:08:40.070Z,24.10
2022-10-03T11:14:26.242Z,24.00
2022-10-03T11:20:00.528Z,23.90
2022-10-03T11:25:51.211Z,23.80
2022-10-03T11:31:37.384Z,23.90
2022-10-03T11:37:01.836Z,24.10
2022-10-03T11:42:12.934Z,24.30
2022-10-03T11:47:43.984Z,24.40
2022-10-03T11:53:11.624Z,24.60
2022-10-03T11:58:42.316Z,24.60
2022-10-03T12:03:54.395Z,24.60
2022-10-03T12:09:11.212Z,24.60
2022-10-03T12:14:26.746Z,24.60
2022-10-03T12:19:37.416Z,24.60
2022-10-03T12:24:43.286Z,24.50
2022-10-03T12:29:58.310Z,24.60
2022-10-03T12:35:16.633Z,24.50
2022-10-03T12:40:25.653Z,24.50
2022-10-03T12:45:36.041Z,24.40
2022-10-03T12:50:48.618Z,24.40
2022-10-03T12:56:03.500Z,24.30
2022-10-03T13:01:16.838Z,24.20
2022-10-03T13:07:03.192Z,24.20
2022-10-03T13:12:16.673Z,24.10
2022-10-03T13:17:28.708Z,24.00
2022-10-03T13:22:41.467Z,23.90
2022-10-03T13:27:49.027Z,23.80
2022-10-03T13:32:57.577Z,23.70
2022-10-03T13:38:27.629Z,23.60
2022-10-03T13:43:36.596Z,23.50
2022-10-03T13:48:43.058Z,23.40
2022-10-03T13:54:00.235Z,23.40
2022-10-03T13:59:11.083Z,23.20
2022-10-03T14:04:36.828Z,23.20
2022-10-03T14:10:01.376Z,23.10
2022-10-03T14:15:31.506Z,23.10
2022-10-03T14:20:40.522Z,23.00
2022-10-03T14:25:49.429Z,22.90
2022-10-03T14:31:06.855Z,22.80
2022-10-03T14:36:35.175Z,22.80
2022-10-03T14:41:48.264Z,22.70
2022-10-03T14:46:56.801Z,22.70
2022-10-03T14:52:03.984Z,22.60
2022-10-03T14:57:26.356Z,22.60
2022-10-03T15:02:36.887Z,22.60
2022-10-03T15:07:42.463Z,22.50
2022-10-03T15:12:51.621Z,22.50
2022-10-03T15:18:00.516Z,22.40
2022-10-03T15:23:07.079Z,22.30
2022-10-03T15:28:16.618Z,22.30
2022-10-03T15:33:29.242Z,22.20
2022-10-03T15:38:36.093Z,22.20
2022-10-03T15:43:47.138Z,22.20
2022-10-03T15:48:54.159Z,22.20
2022-10-03T15:54:02.062Z,22.10
2022-10-03T15:59:13.889Z,22.10
2022-10-03T16:04:21.278Z,22.10
2022-10-03T16:09:31.347Z,22.00
2022-10-03T16:14:42.648Z,21.90
2022-10-03T16:19:54.140Z,21.80
2022-10-03T16:25:09.113Z,21.70
2022-10-03T16:30:22.912Z,21.70
2022-10-03T16:35:35.607Z,21.60
2022-10-03T16:40:39.682Z,21.60
2022-10-03T16:45:47.677Z,21.50
2022-10-03T16:50:54.135Z,21.40
2022-10-03T16:56:05.017Z,21.30
2022-10-03T17:01:28.104Z,21.20
2022-10-03T17:06:35.109Z,21.20
2022-10-03T17:11:41.065Z,21.10
2022-10-03T17:16:52.040Z,20.90
2022-10-03T17:22:01.510Z,20.80
2022-10-03T17:27:12.272Z,20.80
2022-10-03T17:32:23.971Z,20.70
2022-10-03T17:38:04.939Z,20.70
2022-10-03T17:43:27.961Z,20.70
2022-10-03T17:48:39.209Z,20.70
2022-10-03T17:53:53.206Z,20.60
2022-10-03T17:59:04.244Z,20.60
2022-10-03T18:04:17.453Z,20.60
2022-10-03T18:09:38.621Z,20.60
2022-10-03T18:14:53.950Z,20.50
2022-10-03T18:20:12.493Z,20.50
2022-10-03T18:25:42.388Z,20.50
2022-10-03T18:30:52.423Z,20.40
2022-10-03T18:35:58.825Z,20.40
2022-10-03T18:41:05.517Z,20.40
2022-10-03T18:46:21.296Z,20.40
2022-10-03T18:51:36.309Z,20.40
2022-10-03T18:56:40.974Z,20.30
2022-10-03T19:01:55.667Z,20.30
2022-10-03T19:07:03.901Z,20.20
2022-10-03T19:12:14.074Z,20.20
2022-10-03T19:17:25.661Z,20.20
2022-10-03T19:22:33.839Z,20.10
2022-10-03T19:27:46.375Z,20.10
2022-10-03T19:32:58.934Z,20.10
2022-10-03T19:38:08.077Z,20.10
2022-10-03T19:43:41.363Z,20.10
2022-10-03T19:48:50.834Z,20.00
2022-10-03T19:53:57.841Z,20.10
2022-10-03T19:59:06.127Z,20.10
2022-10-03T20:04:09.848Z,20.10
2022-10-03T20:09:24.274Z,20.10
2022-10-03T20:14:33.158Z,20.10
2022-10-03T20:19:48.201Z,20.10
2022-10-03T20:24:53.893Z,20.10
2022-10-03T20:30:07.526Z,20.20
2022-10-03T20:35:16.150Z,20.20
2022-10-03T20:40:36.173Z,20.20
2022-10-03T20:45:40.381Z,20.20
2022-10-03T20:57:26.737Z,20.20
2022-10-03T21:02:37.919Z,20.20
2022-10-03T21:07:45.298Z,20.30
2022-10-03T21:12:52.977Z,20.30
2022-10-03T21:17:57.840Z,20.30
2022-10-03T21:23:04.891Z,20.30
2022-10-03T21:28:24.550Z,20.40
2022-10-03T21:33:32.420Z,20.30
2022-10-03T21:38:39.556Z,20.40
2022-10-03T21:43:51.631Z,20.30
2022-10-03T21:49:28.379Z,20.40
2022-10-03T21:54:41.339Z,20.40
2022-10-03T22:00:12.097Z,20.40
2022-10-03T22:05:24.241Z,20.50
2022-10-03T22:10:31.070Z,20.50
2022-10-03T22:15:44.026Z,20.50
2022-10-03T22:20:55.574Z,20.50
2022-10-03T22:26:09.166Z,20.40
2022-10-03T22:31:20.967Z,20.40
2022-10-03T22:36:24.650Z,20.50
2022-10-03T22:41:31.647Z,20.50
2022-10-03T22:46:38.583Z,20.50
2022-10-03T22:51:43.998Z,20.50
2022-10-03T22:56:53.318Z,20.50
2022-10-03T23:02:00.246Z,20.40
2022-10-03T23:07:18.014Z,20.40
2022-10-03T23:12:22.871Z,20.30
2022-10-03T23:17:51.670Z,20.30
2022-10-03T23:22:59.679Z,20.20
2022-10-03T23:28:16.120Z,20.20
2022-10-03T23:33:48.395Z,20.20
2022-10-03T23:39:03.235Z,20.10
2022-10-03T23:44:40.490Z,20.20
2022-10-03T23:49:48.241Z,20.20
2022-10-03T23:54:53.687Z,20.20
2022-10-03T23:59:57.122Z,20.20
